Wednesday, May 23, 2018, 8:59 AM EDT
Back to Local

KPSF, Pittsfield Municipal Airport

Location: Pittsfield, MA, United States Lat: 42.433
Local Time: 8:59 AM EDT (12:59 GMT) Lon: -73.283
Time Zone: US/Eastern Elev: 1194 ft

Show me the last for .
Show Decoded

2018-05-23 07:54 METAR KPSF 231154Z AUTO 29008KT 10SM OVC007 14/12 A2993 RMK AO2 SLP122 70011
                 T01440122 10150 20128 53014 =
2018-05-23 06:54 METAR KPSF 231054Z AUTO 32005KT 5SM BR OVC005 14/12 A2992 RMK AO2 SLP117
                 T01390122 =
2018-05-23 06:31 METAR KPSF 231031Z AUTO 00000KT 4SM BR OVC008 14/12 A2991 RMK AO2 CIG 005V011
                 T01390122 =
2018-05-23 06:04 METAR KPSF 231004Z AUTO 24003KT 5SM BR BKN010 OVC013 14/12 A2990 RMK AO2 CIG
                 006V012 T01390122 =
2018-05-23 05:54 METAR KPSF 230954Z AUTO 26004KT 7SM BKN008 OVC013 14/12 A2990 RMK AO2 CIG
                 006V010 SLP110 T01390122 =
2018-05-23 05:43 METAR KPSF 230943Z AUTO 26004KT 8SM SCT006 OVC013 13/12 A2990 RMK AO2 T01330117
                 =
2018-05-23 04:54 METAR KPSF 230854Z AUTO 27005KT 7SM OVC005 13/12 A2989 RMK AO2 SLP106 T01330117
                 55002 =
2018-05-23 04:24 METAR KPSF 230824Z AUTO 20004KT 10SM OVC005 13/12 A2988 RMK AO2 T01330117 =
2018-05-23 03:54 METAR KPSF 230754Z AUTO 19003KT 5SM BR OVC003 13/12 A2988 RMK AO2 SLP104
                 T01280117 =
2018-05-23 02:54 METAR KPSF 230654Z AUTO 24007KT 6SM BR OVC003 13/11 A2990 RMK AO2 SLP109
                 T01280111 =
2018-05-23 01:54 METAR KPSF 230554Z AUTO 23004KT 8SM OVC004 13/11 A2989 RMK AO2 SLP107 T01280111
                 10133 20122 56016 =
2018-05-23 01:12 METAR KPSF 230512Z AUTO 20004KT 10SM OVC004 13/11 A2990 RMK AO2 T01280111 =
2018-05-23 00:54 METAR KPSF 230454Z AUTO 24004KT 10SM OVC005 13/11 A2991 RMK AO2 SLP113 T01280111
                 401830094 =
2018-05-22 23:54 METAR KPSF 230354Z AUTO VRB04G14KT 10SM OVC007 13/11 A2992 RMK AO2 SLP116
                 T01280106 =
2018-05-22 22:54 METAR KPSF 230254Z AUTO 00000KT 10SM OVC008 13/11 A2994 RMK AO2 SLP123 T01280106
                 57009 =
2018-05-22 22:28 METAR KPSF 230228Z AUTO 20005KT 10SM OVC009 13/11 A2995 RMK AO2 T01280106 =
2018-05-22 21:54 METAR KPSF 230154Z AUTO 18005KT 10SM OVC011 13/10 A2995 RMK AO2 CIG 009V013
                 SLP128 T01280100 =
2018-05-22 20:54 METAR KPSF 230054Z AUTO 21006KT 10SM OVC013 13/09 A2996 RMK AO2 SLP134 T01280094
                 =
2018-05-22 20:44 METAR KPSF 230044Z AUTO 00000KT 10SM OVC014 13/09 A2997 RMK AO2 T01280094 =
2018-05-22 20:17 METAR KPSF 230017Z AUTO 20008KT 10SM OVC015 13/09 A2997 RMK AO2 T01280094 =
2018-05-22 19:54 METAR KPSF 222354Z AUTO 20005KT 10SM OVC013 13/10 A2997 RMK AO2 SLP137 60006
                 T01280100 10167 20128 58009 =
2018-05-22 19:41 METAR KPSF 222341Z AUTO VRB05KT 10SM BKN013 OVC020 13/10 A2997 RMK AO2 T01330100
                 =
2018-05-22 19:22 METAR KPSF 222322Z AUTO 21007KT 180V250 10SM SCT016 BKN029 OVC043 13/10 A2998
                 RMK AO2 T01330100 =
2018-05-22 18:54 METAR KPSF 222254Z AUTO 21006KT 10SM FEW018 BKN031 OVC043 13/10 A2999 RMK AO2
                 RAE35 SLP144 P0001 T01330100 =
2018-05-22 18:49 METAR KPSF 222249Z AUTO VRB04KT 10SM SCT018 BKN031 OVC043 13/10 A2999 RMK AO2
                 RAE35 P0001 =
2018-05-22 18:19 METAR KPSF 222219Z AUTO VRB03KT 9SM -RA BKN018 BKN023 OVC049 14/09 A3000 RMK AO2
                 P0000 T01390094 =
2018-05-22 17:54 METAR KPSF 222154Z AUTO VRB04KT 10SM -RA SCT024 BKN033 OVC049 14/09 A3000 RMK
                 AO2 RAB23 SLP148 P0001 T01390094 =
2018-05-22 16:54 METAR KPSF 222054Z AUTO 21006KT 10SM BKN055 OVC070 15/08 A3002 RMK AO2 RAE1958
                 SLP155 P0000 60004 T01500078 56021 =
2018-05-22 15:54 METAR KPSF 221954Z AUTO 12005KT 10SM -RA OVC055 16/12 A3004 RMK AO2 RAE1858B21
                 SLP160 P0000 T01560122 =
2018-05-22 14:54 METAR KPSF 221854Z AUTO 21005KT 8SM -RA FEW013 OVC055 16/13 A3007 RMK AO2
                 RAB1755 SLP168 P0004 T01610128 =
2018-05-22 14:33 METAR KPSF 221833Z AUTO 20007KT 7SM -RA FEW015 SCT021 OVC055 16/13 A3008 RMK AO2
                 RAB1755 P0002 T01610133 =
2018-05-22 13:54 METAR KPSF 221754Z AUTO VRB03KT 9SM SCT010 BKN026 OVC060 17/14 A3009 RMK AO2
                 RAE50 SLP174 P0001 60005 T01670139 10183 20117 58016 =
2018-05-22 13:47 METAR KPSF 221747Z AUTO 23005KT 10SM -RA SCT010 BKN048 OVC060 17/13 A3009 RMK
                 AO2 P0001 T01670133 =
2018-05-22 13:33 METAR KPSF 221733Z AUTO 21005KT 7SM -RA BKN009 OVC060 17/14 A3009 RMK AO2 P0001
                 T01670139 =
2018-05-22 13:25 METAR KPSF 221725Z AUTO 00000KT 8SM -RA SCT009 OVC065 17/14 A3009 RMK AO2 P0001
                 T01670139 =
2018-05-22 12:54 METAR KPSF 221654Z AUTO 21003KT 4SM -RA SCT017 OVC070 16/13 A3011 RMK AO2 RAB08
                 SLP185 P0004 T01610133 =
2018-05-22 12:41 METAR KPSF 221641Z AUTO 23007KT 5SM -RA BKN017 OVC070 16/13 A3012 RMK AO2 RAB08
                 P0002 T01610128 =
2018-05-22 11:54 METAR KPSF 221554Z AUTO 22004KT 10SM BKN070 OVC090 18/11 A3011 RMK AO2 RAE31
                 SLP183 P0000 T01780106 =
2018-05-22 10:54 METAR KPSF 221454Z AUTO 20006KT 10SM -RA OVC090 18/09 A3013 RMK AO2 RAB53 SLP188
                 P0000 60000 T01830094 56011 =
2018-05-22 09:54 METAR KPSF 221354Z AUTO 00000KT 10SM OVC100 16/11 A3014 RMK AO2 RAE21 SLP192
                 P0000 T01560106 =

Support USWX by starting your Amazon purchase here.